Sealyon — 2CGJ2 — position and weather

sailwx.info

Track history (hours):
 
Tides and Currents Weather Stations Pressure Air Temp Water Temp Dewpoint Dewpoint Depression Visibility Wind Speed Wind Dir Waves Ship Positions

Sealyon

Last reported at 2015-Jul-31 19:26 UTC. Time now 2015-Sep-04 18:51 UTC.
Position N 37°23' E 025°30'.
Warning: this ship's position is 34 days out of date.

Length 62 m; draft 3.3 m.

Type: Pleasure craft. MMSI: 235072538.

Date/timePositionNaut miles runAvg speedWind from/ knotsBaromVisibWave heightAir tempDewpointWater temp
2015-Jul-31 19:26N 37°23' E 025°30'8 9.2
2015-Jul-31 18:33N 37°24' E 025°20'0 0.0
2015-Jul-31 17:33N 37°25' E 025°20'0 0.0
2015-Jul-31 16:32N 37°24' E 025°20'0 0.0
2015-Jul-31 15:33N 37°24' E 025°20'0 0.0
2015-Jul-31 14:32N 37°24' E 025°20'0 0.4
2015-Jul-31 13:33N 37°24' E 025°20'1 1.1
2015-Jul-31 12:33N 37°25' E 025°19'0 0.0
2015-Jul-31 11:33N 37°25' E 025°19'0 0.0
2015-Jul-31 10:33N 37°25' E 025°19'0 0.0
2015-Jul-31 09:32N 37°25' E 025°19'0 0.0
2015-Jul-31 08:33N 37°25' E 025°19'0 0.0
2015-Jul-31 07:33N 37°25' E 025°19'0 0.0
2015-Jul-31 06:32N 37°25' E 025°19'0 0.0
2015-Jul-31 05:33N 37°25' E 025°19'0 0.0
2015-Jul-31 04:33N 37°25' E 025°19'0 0.0
2015-Jul-31 03:33N 37°25' E 025°19'0 0.0
2015-Jul-31 02:33N 37°25' E 025°19'0 0.0
2015-Jul-31 01:33N 37°25' E 025°19'0 0.0
2015-Jul-31 00:33N 37°25' E 025°19'0 0.0
2015-Jul-30 23:33N 37°25' E 025°19'0 0.0
2015-Jul-30 22:31N 37°25' E 025°19'0 0.0
2015-Jul-30 21:33N 37°25' E 025°19'0 0.0
2015-Jul-30 20:33N 37°25' E 025°19'0 0.0
2015-Jul-30 19:33N 37°25' E 025°19'0 0.0
2015-Jul-30 18:33N 37°25' E 025°19'0 0.0
2015-Jul-30 17:33N 37°25' E 025°19'0 0.0
2015-Jul-30 16:33N 37°25' E 025°19'0 0.0
2015-Jul-30 15:33N 37°25' E 025°19'0 0.0
2015-Jul-30 14:33N 37°25' E 025°19'0 0.0
2015-Jul-30 13:33N 37°25' E 025°19'0 0.0
2015-Jul-30 12:33N 37°25' E 025°19'0 0.0
2015-Jul-30 11:33N 37°25' E 025°19'0 0.0
2015-Jul-30 10:30N 37°25' E 025°19'0 0.0
2015-Jul-30 09:33N 37°25' E 025°19'0 0.0
2015-Jul-30 08:33N 37°25' E 025°19'0 0.0
2015-Jul-30 07:33N 37°25' E 025°19'0 0.0
2015-Jul-30 06:33N 37°25' E 025°19'0 0.0
2015-Jul-30 05:33N 37°25' E 025°19'0 0.0
2015-Jul-30 04:33N 37°25' E 025°19'0 0.0
2015-Jul-30 03:34N 37°25' E 025°19'0 0.0
2015-Jul-30 02:33N 37°25' E 025°19'0 0.0
2015-Jul-30 01:33N 37°25' E 025°19'0 0.0
2015-Jul-30 00:33N 37°25' E 025°19'0 0.0
2015-Jul-29 23:33N 37°25' E 025°19'0 0.0
2015-Jul-29 22:33N 37°25' E 025°19'0 0.0
2015-Jul-29 21:33N 37°25' E 025°19'0 0.0
2015-Jul-29 20:33N 37°25' E 025°19'0 0.0
2015-Jul-29 19:33N 37°25' E 025°19'0 0.0
2015-Jul-29 18:33N 37°25' E 025°19'0 0.0
2015-Jul-29 17:33N 37°25' E 025°19'0 0.0
2015-Jul-29 16:33N 37°25' E 025°19'0 0.0
2015-Jul-29 15:33N 37°25' E 025°19'0 0.0
2015-Jul-29 14:33N 37°25' E 025°19'0 0.0
2015-Jul-29 13:33N 37°25' E 025°19'0 0.0
2015-Jul-29 12:33N 37°25' E 025°19'0 0.0
2015-Jul-29 11:33N 37°25' E 025°19'0 0.0
2015-Jul-29 10:34N 37°25' E 025°19'0 0.0
2015-Jul-29 09:33N 37°25' E 025°19'0 0.0
2015-Jul-29 08:33N 37°25' E 025°19'0 0.0
2015-Jul-29 07:33N 37°25' E 025°19'0 0.0
2015-Jul-29 06:33N 37°25' E 025°19'0 0.0
2015-Jul-29 05:33N 37°25' E 025°19'0 0.0
2015-Jul-29 04:33N 37°25' E 025°19'0 0.0
2015-Jul-29 03:33N 37°25' E 025°19'0 0.0
2015-Jul-29 02:33N 37°25' E 025°19'0 0.0
2015-Jul-29 01:33N 37°25' E 025°19'0 0.0
2015-Jul-29 00:33N 37°25' E 025°19'0 0.0
2015-Jul-28 23:33N 37°25' E 025°19'0 0.0
2015-Jul-28 22:33N 37°25' E 025°19'0 0.0
2015-Jul-28 21:33N 37°25' E 025°19'0 0.0
2015-Jul-28 20:33N 37°25' E 025°19'0 0.0
2015-Jul-28 19:33N 37°25' E 025°19'0 0.0
2015-Jul-28 18:33N 37°25' E 025°19'0 0.0
2015-Jul-28 17:33N 37°25' E 025°19'2 2.5
2015-Jul-28 16:33N 37°24' E 025°22'3 2.8
2015-Jul-28 15:33N 37°26' E 025°25'0 0.0
2015-Jul-28 14:33N 37°26' E 025°25'0 0.0
2015-Jul-28 13:33N 37°26' E 025°25'0 0.0
2015-Jul-28 12:33N 37°26' E 025°25'0 0.0
2015-Jul-28 11:33N 37°26' E 025°25'1 1.3
2015-Jul-28 10:33N 37°25' E 025°24'4 4.3
2015-Jul-28 09:33N 37°27' E 025°19'0 0.0
2015-Jul-28 08:33N 37°27' E 025°19'0 0.0
2015-Jul-28 07:33N 37°27' E 025°19'0 0.0
2015-Jul-28 06:33N 37°27' E 025°19'0 0.0
2015-Jul-28 05:33N 37°27' E 025°19'0 0.0
2015-Jul-28 04:33N 37°27' E 025°19'0 0.0
2015-Jul-28 03:33N 37°27' E 025°19'0 0.0
2015-Jul-28 02:33N 37°27' E 025°19'0 0.0
2015-Jul-28 01:33N 37°27' E 025°19'0 0.0
2015-Jul-28 00:33N 37°27' E 025°19'0 0.0
2015-Jul-27 23:33N 37°27' E 025°19'0 0.0
2015-Jul-27 22:33N 37°27' E 025°19'0 0.0
2015-Jul-27 21:33N 37°27' E 025°19'0 0.0
2015-Jul-27 20:33N 37°27' E 025°19'0 0.0
2015-Jul-27 19:33N 37°27' E 025°19'2 2.5
2015-Jul-27 18:33N 37°24' E 025°19'1 0.5
2015-Jul-27 17:33N 37°25' E 025°19'0 0.0
2015-Jul-27 16:33N 37°25' E 025°19'0 0.0
2015-Jul-27 15:33N 37°25' E 025°19'0 0.0
2015-Jul-27 14:33N 37°25' E 025°19'0 0.0
2015-Jul-27 13:33N 37°25' E 025°19'0 0.0
2015-Jul-27 12:33N 37°25' E 025°19'0 0.0
2015-Jul-27 11:33N 37°25' E 025°19'1 1.0
2015-Jul-27 10:33N 37°24' E 025°19'1110.9
2015-Jul-27 09:33N 37°32' E 025°09'0 0.1
2015-Jul-27 08:33N 37°32' E 025°09'0 0.0
2015-Jul-27 07:33N 37°32' E 025°09'0 0.0
2015-Jul-27 06:33N 37°32' E 025°09'0 0.0
2015-Jul-27 05:33N 37°32' E 025°09'0 0.0
2015-Jul-27 04:33N 37°32' E 025°09'0 0.0
2015-Jul-27 03:33N 37°32' E 025°09'0 0.0
2015-Jul-27 02:33N 37°32' E 025°09'0 0.0
2015-Jul-27 01:33N 37°32' E 025°09'5 5.3
2015-Jul-27 00:33N 37°34' E 025°03'  
Track history (hours):
 
Tides and Currents Weather Stations Pressure Air Temp Water Temp Dewpoint Dewpoint Depression Visibility Wind Speed Wind Dir Waves Ship Positions

Sealyon

Last reported at 2015-Jul-31 19:26 UTC. Time now 2015-Sep-04 18:51 UTC.
Position N 37°23' E 025°30'.
Warning: this ship's position is 34 days out of date.

Length 62 m; draft 3.3 m.

Type: Pleasure craft. MMSI: 235072538.

Date/timePositionNaut miles runAvg speedWind from/ knotsBaromVisibWave heightAir tempDewpointWater temp
2015-Jul-31 19:26N 37°23' E 025°30'8 9.2
2015-Jul-31 18:33N 37°24' E 025°20'0 0.0
2015-Jul-31 17:33N 37°25' E 025°20'0 0.0
2015-Jul-31 16:32N 37°24' E 025°20'0 0.0
2015-Jul-31 15:33N 37°24' E 025°20'0 0.0
2015-Jul-31 14:32N 37°24' E 025°20'0 0.4
2015-Jul-31 13:33N 37°24' E 025°20'1 1.1
2015-Jul-31 12:33N 37°25' E 025°19'0 0.0
2015-Jul-31 11:33N 37°25' E 025°19'0 0.0
2015-Jul-31 10:33N 37°25' E 025°19'0 0.0
2015-Jul-31 09:32N 37°25' E 025°19'0 0.0
2015-Jul-31 08:33N 37°25' E 025°19'0 0.0
2015-Jul-31 07:33N 37°25' E 025°19'0 0.0
2015-Jul-31 06:32N 37°25' E 025°19'0 0.0
2015-Jul-31 05:33N 37°25' E 025°19'0 0.0
2015-Jul-31 04:33N 37°25' E 025°19'0 0.0
2015-Jul-31 03:33N 37°25' E 025°19'0 0.0
2015-Jul-31 02:33N 37°25' E 025°19'0 0.0
2015-Jul-31 01:33N 37°25' E 025°19'0 0.0
2015-Jul-31 00:33N 37°25' E 025°19'0 0.0
2015-Jul-30 23:33N 37°25' E 025°19'0 0.0
2015-Jul-30 22:31N 37°25' E 025°19'0 0.0
2015-Jul-30 21:33N 37°25' E 025°19'0 0.0
2015-Jul-30 20:33N 37°25' E 025°19'0 0.0
2015-Jul-30 19:33N 37°25' E 025°19'0 0.0
2015-Jul-30 18:33N 37°25' E 025°19'0 0.0
2015-Jul-30 17:33N 37°25' E 025°19'0 0.0
2015-Jul-30 16:33N 37°25' E 025°19'0 0.0
2015-Jul-30 15:33N 37°25' E 025°19'0 0.0
2015-Jul-30 14:33N 37°25' E 025°19'0 0.0
2015-Jul-30 13:33N 37°25' E 025°19'0 0.0
2015-Jul-30 12:33N 37°25' E 025°19'0 0.0
2015-Jul-30 11:33N 37°25' E 025°19'0 0.0
2015-Jul-30 10:30N 37°25' E 025°19'0 0.0
2015-Jul-30 09:33N 37°25' E 025°19'0 0.0
2015-Jul-30 08:33N 37°25' E 025°19'0 0.0
2015-Jul-30 07:33N 37°25' E 025°19'0 0.0
2015-Jul-30 06:33N 37°25' E 025°19'0 0.0
2015-Jul-30 05:33N 37°25' E 025°19'0 0.0
2015-Jul-30 04:33N 37°25' E 025°19'0 0.0
2015-Jul-30 03:34N 37°25' E 025°19'0 0.0
2015-Jul-30 02:33N 37°25' E 025°19'0 0.0
2015-Jul-30 01:33N 37°25' E 025°19'0 0.0
2015-Jul-30 00:33N 37°25' E 025°19'0 0.0
2015-Jul-29 23:33N 37°25' E 025°19'0 0.0
2015-Jul-29 22:33N 37°25' E 025°19'0 0.0
2015-Jul-29 21:33N 37°25' E 025°19'0 0.0
2015-Jul-29 20:33N 37°25' E 025°19'0 0.0
2015-Jul-29 19:33N 37°25' E 025°19'0 0.0
2015-Jul-29 18:33N 37°25' E 025°19'0 0.0
2015-Jul-29 17:33N 37°25' E 025°19'0 0.0
2015-Jul-29 16:33N 37°25' E 025°19'0 0.0
2015-Jul-29 15:33N 37°25' E 025°19'0 0.0
2015-Jul-29 14:33N 37°25' E 025°19'0 0.0
2015-Jul-29 13:33N 37°25' E 025°19'0 0.0
2015-Jul-29 12:33N 37°25' E 025°19'0 0.0
2015-Jul-29 11:33N 37°25' E 025°19'0 0.0
2015-Jul-29 10:34N 37°25' E 025°19'0 0.0
2015-Jul-29 09:33N 37°25' E 025°19'0 0.0
2015-Jul-29 08:33N 37°25' E 025°19'0 0.0
2015-Jul-29 07:33N 37°25' E 025°19'0 0.0
2015-Jul-29 06:33N 37°25' E 025°19'0 0.0
2015-Jul-29 05:33N 37°25' E 025°19'0 0.0
2015-Jul-29 04:33N 37°25' E 025°19'0 0.0
2015-Jul-29 03:33N 37°25' E 025°19'0 0.0
2015-Jul-29 02:33N 37°25' E 025°19'0 0.0
2015-Jul-29 01:33N 37°25' E 025°19'0 0.0
2015-Jul-29 00:33N 37°25' E 025°19'0 0.0
2015-Jul-28 23:33N 37°25' E 025°19'0 0.0
2015-Jul-28 22:33N 37°25' E 025°19'0 0.0
2015-Jul-28 21:33N 37°25' E 025°19'0 0.0
2015-Jul-28 20:33N 37°25' E 025°19'0 0.0
2015-Jul-28 19:33N 37°25' E 025°19'0 0.0
2015-Jul-28 18:33N 37°25' E 025°19'0 0.0
2015-Jul-28 17:33N 37°25' E 025°19'2 2.5
2015-Jul-28 16:33N 37°24' E 025°22'3 2.8
2015-Jul-28 15:33N 37°26' E 025°25'0 0.0
2015-Jul-28 14:33N 37°26' E 025°25'0 0.0
2015-Jul-28 13:33N 37°26' E 025°25'0 0.0
2015-Jul-28 12:33N 37°26' E 025°25'0 0.0
2015-Jul-28 11:33N 37°26' E 025°25'1 1.3
2015-Jul-28 10:33N 37°25' E 025°24'4 4.3
2015-Jul-28 09:33N 37°27' E 025°19'0 0.0
2015-Jul-28 08:33N 37°27' E 025°19'0 0.0
2015-Jul-28 07:33N 37°27' E 025°19'0 0.0
2015-Jul-28 06:33N 37°27' E 025°19'0 0.0
2015-Jul-28 05:33N 37°27' E 025°19'0 0.0
2015-Jul-28 04:33N 37°27' E 025°19'0 0.0
2015-Jul-28 03:33N 37°27' E 025°19'0 0.0
2015-Jul-28 02:33N 37°27' E 025°19'0 0.0
2015-Jul-28 01:33N 37°27' E 025°19'0 0.0
2015-Jul-28 00:33N 37°27' E 025°19'0 0.0
2015-Jul-27 23:33N 37°27' E 025°19'0 0.0
2015-Jul-27 22:33N 37°27' E 025°19'0 0.0
2015-Jul-27 21:33N 37°27' E 025°19'0 0.0
2015-Jul-27 20:33N 37°27' E 025°19'0 0.0
2015-Jul-27 19:33N 37°27' E 025°19'2 2.5
2015-Jul-27 18:33N 37°24' E 025°19'1 0.5
2015-Jul-27 17:33N 37°25' E 025°19'0 0.0
2015-Jul-27 16:33N 37°25' E 025°19'0 0.0
2015-Jul-27 15:33N 37°25' E 025°19'0 0.0
2015-Jul-27 14:33N 37°25' E 025°19'0 0.0
2015-Jul-27 13:33N 37°25' E 025°19'0 0.0
2015-Jul-27 12:33N 37°25' E 025°19'0 0.0
2015-Jul-27 11:33N 37°25' E 025°19'1 1.0
2015-Jul-27 10:33N 37°24' E 025°19'1110.9
2015-Jul-27 09:33N 37°32' E 025°09'0 0.1
2015-Jul-27 08:33N 37°32' E 025°09'0 0.0
2015-Jul-27 07:33N 37°32' E 025°09'0 0.0
2015-Jul-27 06:33N 37°32' E 025°09'0 0.0
2015-Jul-27 05:33N 37°32' E 025°09'0 0.0
2015-Jul-27 04:33N 37°32' E 025°09'0 0.0
2015-Jul-27 03:33N 37°32' E 025°09'0 0.0
2015-Jul-27 02:33N 37°32' E 025°09'0 0.0
2015-Jul-27 01:33N 37°32' E 025°09'5 5.3
2015-Jul-27 00:33N 37°34' E 025°03'  

Dump ship's entire track history